createdAt,value
2019-01-09T00:03:04.951Z,99122.64
2019-01-09T00:08:07.071Z,99124.95
2019-01-09T00:13:09.108Z,99114.09
2019-01-09T00:18:11.272Z,99134.73
2019-01-09T00:23:13.366Z,99127.92
2019-01-09T00:28:15.498Z,99128.91
2019-01-09T00:33:17.528Z,99135.36
2019-01-09T00:38:19.560Z,99135.30
2019-01-09T00:43:21.675Z,99139.69
2019-01-09T00:48:23.695Z,99130.63
2019-01-09T00:53:25.796Z,99135.52
2019-01-09T00:58:28.053Z,99143.38
2019-01-09T01:04:10.379Z,99150.72
2019-01-09T01:09:52.215Z,99146.70
2019-01-09T01:15:24.810Z,99150.17
2019-01-09T01:20:36.191Z,99153.94
2019-01-09T01:26:15.440Z,99162.32
2019-01-09T01:31:47.267Z,99155.77
2019-01-09T01:37:30.036Z,99156.75
2019-01-09T01:43:01.027Z,99172.16
2019-01-09T01:48:18.046Z,99177.95
2019-01-09T01:53:33.334Z,99197.92
2019-01-09T01:58:53.257Z,99186.22
2019-01-09T02:04:32.280Z,99196.95
2019-01-09T02:09:50.560Z,99215.39
2019-01-09T02:15:45.954Z,99214.50
2019-01-09T02:21:06.253Z,99213.23
2019-01-09T02:26:47.636Z,99206.00
2019-01-09T02:32:00.723Z,99225.02
2019-01-09T02:37:02.675Z,99203.31
2019-01-09T02:42:04.631Z,99225.99
2019-01-09T02:47:06.651Z,99210.22
2019-01-09T02:52:08.698Z,99214.75
2019-01-09T02:57:10.765Z,99223.33
2019-01-09T03:02:12.753Z,99217.74
2019-01-09T03:07:14.779Z,99210.09
2019-01-09T03:12:16.824Z,99220.53
2019-01-09T03:17:18.834Z,99208.48
2019-01-09T03:22:20.871Z,99217.84
2019-01-09T03:27:22.910Z,99222.25
2019-01-09T03:32:25.023Z,99231.53
2019-01-09T03:37:27.417Z,99228.94
2019-01-09T03:42:29.322Z,99236.38
2019-01-09T03:47:31.340Z,99223.33
2019-01-09T03:52:33.645Z,99247.48
2019-01-09T03:57:35.587Z,99237.44
2019-01-09T04:02:37.512Z,99245.23
2019-01-09T04:07:39.563Z,99242.58
2019-01-09T04:12:41.605Z,99244.44
2019-01-09T04:17:43.539Z,99251.95
2019-01-09T04:22:45.451Z,99245.58
2019-01-09T04:27:47.566Z,99251.20
2019-01-09T04:32:49.428Z,99256.23
2019-01-09T04:37:52.130Z,99261.52
2019-01-09T04:42:54.150Z,99271.64
2019-01-09T04:47:56.069Z,99274.48
2019-01-09T04:52:58.049Z,99262.73
2019-01-09T04:58:00.062Z,99274.52
2019-01-09T05:03:02.209Z,99281.12
2019-01-09T05:08:04.242Z,99281.66
2019-01-09T05:13:06.207Z,99287.17
2019-01-09T05:18:08.253Z,99287.74
2019-01-09T05:23:10.261Z,99289.33
2019-01-09T05:28:12.182Z,99281.39
2019-01-09T05:33:14.096Z,99301.58
2019-01-09T05:38:16.089Z,99302.48
2019-01-09T05:43:18.128Z,99308.64
2019-01-09T05:48:20.029Z,99312.05
2019-01-09T05:53:22.133Z,99306.30
2019-01-09T05:58:24.036Z,99313.63
2019-01-09T06:03:26.062Z,99317.98
2019-01-09T06:08:27.989Z,99338.31
2019-01-09T06:13:30.120Z,99339.75
2019-01-09T06:18:32.129Z,99339.56
2019-01-09T06:23:34.079Z,99346.22
2019-01-09T06:28:37.145Z,99346.09
2019-01-09T06:33:39.149Z,99361.86
2019-01-09T06:38:41.106Z,99362.50
2019-01-09T06:43:43.042Z,99366.50
2019-01-09T06:48:44.961Z,99371.05
2019-01-09T06:53:46.951Z,99386.09
2019-01-09T06:58:48.905Z,99382.23
2019-01-09T07:03:50.993Z,99390.40
2019-01-09T07:08:59.045Z,99399.31
2019-01-09T07:14:01.114Z,99398.08
2019-01-09T07:19:03.211Z,99396.00
2019-01-09T07:24:05.281Z,99395.09
2019-01-09T07:29:07.246Z,99396.75
2019-01-09T07:34:09.233Z,99406.33
2019-01-09T07:39:11.180Z,99432.19
2019-01-09T07:44:13.420Z,99415.52
2019-01-09T07:49:15.340Z,99420.52
2019-01-09T07:54:17.394Z,99425.35
2019-01-09T07:59:20.530Z,99431.87
2019-01-09T08:04:22.435Z,99436.22
2019-01-09T08:09:24.362Z,99437.95
2019-01-09T08:14:26.329Z,99442.46
2019-01-09T08:19:28.229Z,99452.64
2019-01-09T08:24:31.209Z,99450.89
2019-01-09T08:29:33.245Z,99455.06
2019-01-09T08:34:36.580Z,99466.06
2019-01-09T08:39:38.763Z,99469.94
2019-01-09T08:44:40.829Z,99467.24
2019-01-09T08:49:42.880Z,99471.70
2019-01-09T08:54:44.992Z,99478.33
2019-01-09T08:59:46.956Z,99486.77
2019-01-09T09:04:48.896Z,99484.42
2019-01-09T09:09:50.978Z,99519.63
2019-01-09T09:14:52.921Z,99516.06
2019-01-09T09:19:54.861Z,99530.03
2019-01-09T09:24:59.439Z,99530.74
2019-01-09T09:30:01.537Z,99539.89
2019-01-09T09:35:03.765Z,99542.94
2019-01-09T09:40:07.665Z,99538.91
2019-01-09T09:45:10.250Z,99550.92
2019-01-09T09:50:13.491Z,99549.02
2019-01-09T09:55:15.474Z,99560.73
2019-01-09T10:00:19.080Z,99558.17
2019-01-09T10:05:21.020Z,99587.41
2019-01-09T10:10:22.938Z,99571.23
2019-01-09T10:15:24.852Z,99574.87
2019-01-09T10:20:26.774Z,99583.94
2019-01-09T10:25:28.866Z,99588.85
2019-01-09T10:30:30.971Z,99584.14
2019-01-09T10:35:32.942Z,99588.30
2019-01-09T10:40:36.310Z,99591.19
2019-01-09T10:45:39.709Z,99568.07
2019-01-09T10:50:41.628Z,99598.84
2019-01-09T10:55:43.569Z,99607.89
2019-01-09T11:00:46.284Z,99589.58
2019-01-09T11:05:48.317Z,99600.20
2019-01-09T11:10:50.215Z,99594.81
2019-01-09T11:15:52.229Z,99606.50
2019-01-09T11:20:54.154Z,99595.70
2019-01-09T11:25:56.062Z,99591.96
2019-01-09T11:30:58.185Z,99596.42
2019-01-09T11:36:00.121Z,99606.83
2019-01-09T11:41:02.257Z,99609.57
2019-01-09T11:46:04.381Z,99606.69
2019-01-09T11:51:06.298Z,99618.12
2019-01-09T11:56:08.415Z,99610.08
2019-01-09T12:01:10.542Z,99613.98
2019-01-09T12:06:12.500Z,99622.33
2019-01-09T12:11:14.416Z,99617.03
2019-01-09T12:16:16.353Z,99630.41
2019-01-09T12:21:18.287Z,99628.09
2019-01-09T12:26:20.416Z,99636.78
2019-01-09T12:31:22.445Z,99637.30
2019-01-09T12:36:24.422Z,99649.50
2019-01-09T12:41:26.343Z,99663.22
2019-01-09T12:46:28.286Z,99656.16
2019-01-09T12:51:30.202Z,99671.30
2019-01-09T12:56:32.520Z,99677.91
2019-01-09T13:01:34.460Z,99680.55
2019-01-09T13:06:36.489Z,99688.73
2019-01-09T13:11:38.383Z,99718.05
2019-01-09T13:16:47.675Z,99704.47
2019-01-09T13:21:44.425Z,99720.83
2019-01-09T13:26:46.348Z,99731.27
2019-01-09T13:31:48.331Z,99734.19
2019-01-09T13:36:50.351Z,99730.43
2019-01-09T13:41:55.086Z,99742.34
2019-01-09T13:46:57.207Z,99743.42
2019-01-09T13:51:59.136Z,99754.73
2019-01-09T13:57:01.042Z,99755.19
2019-01-09T14:02:03.108Z,99762.29
2019-01-09T14:07:05.061Z,99762.64
2019-01-09T14:12:06.955Z,99770.09
2019-01-09T14:17:08.985Z,99779.36
2019-01-09T14:22:11.266Z,99783.95
2019-01-09T14:27:13.197Z,99797.53
2019-01-09T14:32:15.269Z,99798.83
2019-01-09T14:37:17.249Z,99811.30
2019-01-09T14:42:19.295Z,99819.24
2019-01-09T14:47:21.189Z,99835.13
2019-01-09T14:52:23.115Z,99823.80
2019-01-09T14:57:25.226Z,99840.91
2019-01-09T15:02:27.139Z,99848.86
2019-01-09T15:07:29.217Z,99851.72
2019-01-09T15:12:31.329Z,99851.23
2019-01-09T15:17:33.240Z,99870.50
2019-01-09T15:22:35.378Z,99874.61
2019-01-09T15:27:37.503Z,99882.28
2019-01-09T15:32:39.537Z,99878.20
2019-01-09T15:37:41.588Z,99888.20
2019-01-09T15:42:43.721Z,99897.12
2019-01-09T15:47:45.849Z,99909.87
2019-01-09T15:52:47.771Z,99915.17
2019-01-09T15:57:50.040Z,99914.58
2019-01-09T16:02:53.279Z,99924.55
2019-01-09T16:07:55.266Z,99926.12
2019-01-09T16:12:57.204Z,99933.36
2019-01-09T16:17:59.592Z,99937.55
2019-01-09T16:23:01.648Z,99941.30
2019-01-09T16:28:03.720Z,99948.37
2019-01-09T16:33:05.749Z,99959.09
2019-01-09T16:38:07.697Z,99948.74
2019-01-09T16:43:09.633Z,99958.49
2019-01-09T16:48:11.948Z,99970.86
2019-01-09T16:53:13.860Z,99983.39
2019-01-09T16:58:15.937Z,99971.96
2019-01-09T17:03:18.390Z,99987.08
2019-01-09T17:08:20.404Z,99988.28
2019-01-09T17:13:22.324Z,99998.52
2019-01-09T17:18:24.572Z,99985.38
2019-01-09T17:23:26.501Z,100005.52
2019-01-09T17:28:28.859Z,100003.82
2019-01-09T17:33:30.760Z,100008.16
2019-01-09T17:38:32.877Z,100020.16
2019-01-09T17:43:34.787Z,100024.84
2019-01-09T17:48:38.601Z,100030.98
2019-01-09T17:53:40.509Z,100041.89
2019-01-09T17:58:42.421Z,100046.83
2019-01-09T18:03:44.337Z,100048.98
2019-01-09T18:08:46.745Z,100069.63
2019-01-09T18:13:49.947Z,100073.44
2019-01-09T18:18:52.159Z,100078.15
2019-01-09T18:23:54.094Z,100083.70
2019-01-09T18:28:56.009Z,100095.47
2019-01-09T18:34:11.755Z,100090.18
2019-01-09T18:39:57.803Z,100094.86
2019-01-09T18:45:28.587Z,100106.41
2019-01-09T18:51:15.108Z,100114.91
2019-01-09T18:56:17.116Z,100109.84
2019-01-09T19:01:19.270Z,100141.67
2019-01-09T19:06:21.363Z,100130.78
2019-01-09T19:11:23.272Z,100147.36
2019-01-09T19:16:25.549Z,100158.42
2019-01-09T19:21:27.630Z,100167.11
2019-01-09T19:26:29.651Z,100171.79
2019-01-09T19:31:31.556Z,100175.28
2019-01-09T19:36:33.633Z,100191.31
2019-01-09T19:47:18.092Z,100203.70
2019-01-09T19:52:20.005Z,100218.92
2019-01-09T19:57:22.134Z,100223.77
2019-01-09T20:02:24.008Z,100232.41
2019-01-09T20:07:26.040Z,100242.38
2019-01-09T20:12:28.164Z,100236.38
2019-01-09T20:17:30.180Z,100259.08
2019-01-09T20:22:32.281Z,100253.77
2019-01-09T20:27:34.375Z,100269.52
2019-01-09T20:32:36.504Z,100269.66
2019-01-09T20:37:38.669Z,100286.28
2019-01-09T20:42:40.905Z,100284.97
2019-01-09T20:47:43.081Z,100293.65
2019-01-09T20:52:44.959Z,100293.10
2019-01-09T20:57:47.047Z,100298.88
2019-01-09T21:02:49.746Z,100310.56
2019-01-09T21:07:51.748Z,100315.25
2019-01-09T21:12:53.924Z,100338.02
2019-01-09T21:17:56.026Z,100327.05
2019-01-09T21:22:58.026Z,100339.20
2019-01-09T21:28:00.024Z,100336.82
2019-01-09T21:33:01.954Z,100335.41
2019-01-09T21:38:03.999Z,100340.50
2019-01-09T21:43:06.053Z,100344.95
2019-01-09T21:48:08.294Z,100352.33
2019-01-09T21:53:10.188Z,100357.98
2019-01-09T21:58:12.217Z,100380.53
2019-01-09T22:03:14.330Z,100391.39
2019-01-09T22:08:16.423Z,100386.67
2019-01-09T22:13:19.837Z,100385.34
2019-01-09T22:18:22.248Z,100395.12
2019-01-09T22:23:24.341Z,100388.05
2019-01-09T22:28:26.353Z,100417.68
2019-01-09T22:33:28.371Z,100406.60
2019-01-09T22:38:30.327Z,100406.30
2019-01-09T22:43:32.368Z,100409.30
2019-01-09T22:48:36.257Z,100415.70
2019-01-09T22:53:40.086Z,100424.02
2019-01-09T22:58:41.989Z,100422.38
2019-01-09T23:03:44.515Z,100427.70
2019-01-09T23:08:46.610Z,100440.84
2019-01-09T23:13:48.828Z,100440.22
2019-01-09T23:18:50.929Z,100444.56
2019-01-09T23:23:53.005Z,100460.58
2019-01-09T23:28:54.941Z,100480.32
2019-01-09T23:33:56.991Z,100474.18
2019-01-09T23:39:02.349Z,100471.27
2019-01-09T23:44:05.739Z,100467.08
2019-01-09T23:49:08.084Z,100469.58
2019-01-09T23:54:10.731Z,100482.97
2019-01-09T23:59:12.645Z,100488.48
